Airfield :
LOGIN :

Register | Disclaimer

   EN    FR    IT 

 










Legend :    VFR   Marginal VFR   IFR   Intensive IFR   Very Intensive IFR
Visi :
Ceiling :
>= 8 km
>= 3000ft
5 to 8 km
1000 to 3000 ft
1500m to 5 km
500 to 1000 ft
800 to 1500m
200 to 500 ft
< 800m
< 200 ft
Symbols :   Thunderstorms  Fog  Heavy snow  Heavy precipitations  Wind > 20 kt
SIGMETs :     Misc.  Thunderstorms  Icing  Turbulence  Mountain Waves  Volcanic Ashes







- Airport Elevation : 0 ft


ETEB - Ansbach Army Heliport

CURRENT METAR :
  • 240756Z AUTO 23007KT 9999 SCT024 15/10 A3011 RMK AO2 SLP204 T01480102 $

EXPIRED METARs :
  • 240656Z AUTO 21008KT 9999 CLR 14/12 A3011 RMK AO2 SLP204 T01350119 $
  • 240556Z AUTO 25006KT 9999 FEW007 12/12 A3011 RMK AO2 SLP204 T01210121 10126 20100 53007 $

TAF TAF ETEB
Valid from the 24 at 05:00 until the 25 at 11:00 UTC


240506Z 2405/2511 25009KT 9999 SCT020 QNH3007INS
BECMG 2412/2413 26012KT 9999 SCT050 QNH3004INS
BECMG 2501/2502 VRB06KT 6000 BR SCT050 QNH2996INS
BECMG 2505/2506 22009KT 9999 NSW BKN040 QNH2993INS TX18/2414Z TN09/2504Z
No reported NOTAMs for that airfield.



MET'MAP, your aeronautical weather chart ! - Copyright ORBIFLY December 2007 - Disclaimer

ORBIFLY MET'MAP TEAM :

Programming & Development : Alexandra Zaïnal
Concept & Development : Baudouin d'Aumeries
Co-Development & Prog : Marc-Olivier Méhu
Technical & hardware support : Manuel Goepfert

Contact : metmap@orbifly.com




SOURCES & CREDITS :

   NOAA